Time;durP1;ratioP1;P1;durP2;ratioP2;P2;SDS_P1;SDS_P2;PMS_P1;PMS_P2;Temp;Humidity;BMP_temperature;BMP_pressure;BME280_temperature;BME280_humidity;BME280_pressure;Samples;Min_cycle;Max_cycle;Signal;HPM_P1;HPM_P2
2023/06/07 00:00:30;;;;;;;;;14.75;14.75;;;;;22.87;50.26;101098.34;2087202;28;46496;-61
2023/06/07 00:01:33;;;;;;;;;13.50;13.50;;;;;22.86;49.53;101096.59;2087102;28;46341;-61
2023/06/07 00:02:34;;;;;;;;;10.80;10.80;;;;;22.84;49.95;101088.56;2088173;28;46576;-61
2023/06/07 00:03:36;;;;;;;;;14.25;14.25;;;;;22.83;49.83;101089.56;2089163;28;45647;-62
2023/06/07 00:04:39;;;;;;;;;10.40;10.40;;;;;22.83;50.08;101091.38;2087551;28;45889;-62
2023/06/07 00:05:39;;;;;;;;;14.60;14.60;;;;;22.82;50.12;101097.75;2087839;28;46689;-61
2023/06/07 00:06:40;;;;;;;;;12.75;12.75;;;;;22.81;50.01;101102.28;2087642;28;45665;-61
2023/06/07 00:07:41;;;;;;;;;10.75;10.75;;;;;22.79;50.06;101089.84;2087813;28;46140;-63
2023/06/07 00:08:43;;;;;;;;;12.50;12.50;;;;;22.78;50.19;101101.63;2087031;28;47558;-61
2023/06/07 00:09:44;;;;;;;;;14.40;14.20;;;;;22.77;49.97;101089.94;2087311;28;48355;-59
2023/06/07 00:10:45;;;;;;;;;14.40;14.40;;;;;22.76;49.86;101092.75;2087347;28;45649;-61
2023/06/07 00:11:45;;;;;;;;;14.25;14.25;;;;;22.74;49.90;101086.53;2087704;28;45672;-61
2023/06/07 00:12:45;;;;;;;;;13.00;12.75;;;;;22.73;49.96;101090.22;2087393;28;45871;-63
2023/06/07 00:13:46;;;;;;;;;16.25;12.25;;;;;22.72;49.60;101093.91;2087022;28;46456;-62
2023/06/07 00:14:46;;;;;;;;;16.00;14.25;;;;;22.72;49.74;101086.66;2086723;28;45335;-64
2023/06/07 00:15:47;;;;;;;;;14.00;13.25;;;;;22.71;49.94;101100.28;2087246;28;46674;-61
2023/06/07 00:16:49;;;;;;;;;18.50;15.75;;;;;22.69;49.79;101094.97;2087160;28;46603;-60
2023/06/07 00:17:50;;;;;;;;;11.40;10.80;;;;;22.67;50.25;101094.22;2087724;28;45930;-61
2023/06/07 00:18:51;;;;;;;;;17.00;13.75;;;;;22.65;50.16;101089.88;2087539;28;45796;-61
2023/06/07 00:19:52;;;;;;;;;14.75;14.00;;;;;22.62;49.90;101096.38;2093465;28;47349;-59
2023/06/07 00:20:53;;;;;;;;;14.80;14.60;;;;;22.61;50.43;101098.22;2094894;28;45151;-61
2023/06/07 00:21:53;;;;;;;;;14.00;14.00;;;;;22.60;50.09;101088.34;2086483;28;46475;-61
2023/06/07 00:22:58;;;;;;;;;14.00;13.00;;;;;22.59;50.46;101088.44;2086708;28;46390;-61
2023/06/07 00:23:58;;;;;;;;;16.80;15.80;;;;;22.57;49.74;101098.50;2087074;28;45665;-62
2023/06/07 00:24:58;;;;;;;;;16.75;13.75;;;;;22.54;50.33;101094.16;2087108;28;46553;-61
2023/06/07 00:25:59;;;;;;;;;12.75;12.00;;;;;22.51;50.30;101093.50;2087535;28;46087;-62
2023/06/07 00:27:00;;;;;;;;;15.60;15.60;;;;;22.51;50.15;101093.50;2087023;28;45638;-61
2023/06/07 00:28:00;;;;;;;;;13.50;12.75;;;;;22.49;50.29;101095.44;2087170;28;45927;-62
2023/06/07 00:29:00;;;;;;;;;16.25;12.00;;;;;22.47;50.15;101095.50;2087049;28;47295;-63
2023/06/07 00:30:03;;;;;;;;;13.25;12.25;;;;;22.45;50.34;101092.06;2087478;28;45732;-63
2023/06/07 00:31:04;;;;;;;;;13.40;12.40;;;;;22.45;50.56;101091.19;2087406;28;46099;-62
2023/06/07 00:32:05;;;;;;;;;10.80;10.80;;;;;22.44;50.69;101090.31;2087400;28;46645;-60
2023/06/07 00:33:05;;;;;;;;;13.50;12.00;;;;;22.42;50.34;101097.66;2087426;28;46560;-61
2023/06/07 00:34:06;;;;;;;;;14.00;12.00;;;;;22.41;50.36;101078.84;2085425;28;46139;-61
2023/06/07 00:35:07;;;;;;;;;14.00;14.00;;;;;22.38;50.21;101096.13;2102904;27;47950;-62
2023/06/07 00:36:07;;;;;;;;;15.40;14.00;;;;;22.36;50.93;101086.38;2095010;28;45688;-60
2023/06/07 00:37:08;;;;;;;;;15.50;14.00;;;;;22.32;50.54;101086.56;2086361;28;45541;-61
2023/06/07 00:38:09;;;;;;;;;16.75;16.00;;;;;22.32;50.62;101089.28;2087343;28;46003;-60
2023/06/07 00:39:09;;;;;;;;;14.60;14.60;;;;;22.28;50.80;101087.75;2086497;28;47761;-59
2023/06/07 00:40:10;;;;;;;;;16.50;15.00;;;;;22.28;50.56;101086.88;2086477;28;45919;-60
2023/06/07 00:41:11;;;;;;;;;17.20;15.20;;;;;22.26;50.44;101086.97;2086307;28;48086;-59
2023/06/07 00:42:11;;;;;;;;;13.75;11.25;;;;;22.25;50.65;101087.94;2086882;28;46081;-61
2023/06/07 00:43:12;;;;;;;;;15.50;12.50;;;;;22.24;50.49;101082.66;2086485;28;45064;-62
2023/06/07 00:44:12;;;;;;;;;14.00;13.75;;;;;22.24;51.03;101091.63;2086800;28;45678;-62
2023/06/07 00:45:12;;;;;;;;;15.50;13.00;;;;;22.23;50.63;101084.50;2086648;28;46585;-61
2023/06/07 00:46:15;;;;;;;;;15.00;15.00;;;;;22.24;50.38;101090.75;2087329;28;46276;-60
2023/06/07 00:47:16;;;;;;;;;12.20;12.00;;;;;22.23;50.74;101080.88;2086967;28;46609;-60
2023/06/07 00:48:16;;;;;;;;;17.00;14.60;;;;;22.22;50.92;101079.16;2087244;28;46347;-62
2023/06/07 00:49:17;;;;;;;;;16.00;14.25;;;;;22.23;50.74;101078.19;2087184;28;46398;-61
2023/06/07 00:50:18;;;;;;;;;15.00;14.00;;;;;22.22;50.89;101085.41;2086848;28;47607;-61
2023/06/07 00:51:18;;;;;;;;;18.50;16.50;;;;;22.20;51.26;101086.50;2086805;28;45503;-61
2023/06/07 00:52:20;;;;;;;;;15.00;15.00;;;;;22.18;50.91;101088.44;2086379;28;45658;-62
2023/06/07 00:53:21;;;;;;;;;16.40;15.40;;;;;22.16;51.21;101095.78;2086757;28;45849;-61
2023/06/07 00:54:21;;;;;;;;;13.75;12.75;;;;;22.14;51.08;101090.47;2086665;28;46060;-60
2023/06/07 00:55:22;;;;;;;;;14.25;14.00;;;;;22.12;50.85;101092.41;2087022;28;45773;-60
2023/06/07 00:56:22;;;;;;;;;15.00;15.00;;;;;22.13;51.23;101087.88;2087061;28;45680;-60
2023/06/07 00:57:22;;;;;;;;;14.75;13.50;;;;;22.11;51.03;101087.09;2078665;28;45087;-61
2023/06/07 00:58:25;;;;;;;;;14.75;14.75;;;;;22.10;51.30;101088.03;2078004;28;45580;-62
2023/06/07 00:59:26;;;;;;;;;16.40;15.40;;;;;22.08;51.30;101081.88;2087434;28;46112;-62
2023/06/07 01:00:28;;;;;;;;;11.50;11.50;;;;;22.07;50.79;101086.41;2086898;28;46223;-62
2023/06/07 01:01:29;;;;;;;;;15.20;14.60;;;;;22.06;50.72;101084.69;2086938;28;47583;-63
2023/06/07 01:02:30;;;;;;;;;16.50;15.25;;;;;22.05;50.71;101085.63;2087911;28;46284;-61
2023/06/07 01:03:34;;;;;;;;;15.60;14.60;;;;;22.03;50.83;101084.84;2086619;28;46221;-61
2023/06/07 01:04:40;;;;;;;;;15.60;14.60;;;;;22.01;51.16;101079.53;2086551;28;45627;-60
2023/06/07 01:05:41;;;;;;;;;13.80;13.80;;;;;21.98;51.21;101079.75;2087906;28;46130;-62
2023/06/07 01:06:42;;;;;;;;;16.60;13.60;;;;;21.97;51.30;101071.72;2087570;28;45154;-62
2023/06/07 01:07:47;;;;;;;;;17.00;15.25;;;;;21.97;50.89;101083.38;2087087;28;46510;-61
2023/06/07 01:08:51;;;;;;;;;18.00;16.00;;;;;21.96;51.03;101083.47;2087684;28;45671;-58
2023/06/07 01:09:53;;;;;;;;;17.60;14.80;;;;;21.95;50.71;101079.91;2077017;28;45248;-61
2023/06/07 01:10:53;;;;;;;;;14.00;14.00;;;;;21.94;51.28;101078.19;2078501;28;45780;-59
2023/06/07 01:11:56;;;;;;;;;18.25;16.25;;;;;21.94;50.96;101071.91;2102855;27;45531;-62
2023/06/07 01:12:58;;;;;;;;;16.00;15.60;;;;;21.94;50.79;101074.59;2102170;28;46665;-60
2023/06/07 01:13:58;;;;;;;;;17.60;16.40;;;;;21.93;50.85;101076.44;2086472;28;45706;-60
2023/06/07 01:14:59;;;;;;;;;16.50;15.50;;;;;21.92;51.14;101069.31;2085925;28;45665;-61
2023/06/07 01:16:00;;;;;;;;;14.75;14.75;;;;;21.92;50.82;101081.94;2086255;28;46254;-62
2023/06/07 01:17:02;;;;;;;;;18.25;16.25;;;;;21.91;51.37;101070.28;2086980;28;46283;-61
2023/06/07 01:18:04;;;;;;;;;17.00;15.20;;;;;21.90;51.24;101070.38;2086116;28;46766;-62
2023/06/07 01:19:06;;;;;;;;;14.80;14.80;;;;;21.88;51.07;101065.06;2087097;28;45809;-61
2023/06/07 01:20:12;;;;;;;;;18.60;16.20;;;;;21.87;51.13;101074.16;2086811;28;45707;-62
2023/06/07 01:21:18;;;;;;;;;17.20;15.60;;;;;21.86;51.38;101069.72;2086721;28;46714;-60
2023/06/07 01:22:24;;;;;;;;;15.60;14.80;;;;;21.85;51.54;101072.47;2087166;28;46498;-60
2023/06/07 01:23:34;;;;;;;;;13.80;13.80;;;;;21.83;51.33;101072.59;2087360;28;46072;-61
2023/06/07 01:24:42;;;;;;;;;13.40;12.60;;;;;21.83;51.52;101077.13;2086969;28;46931;-62
2023/06/07 01:25:43;;;;;;;;;14.20;13.00;;;;;21.84;51.37;101073.44;2087211;28;46409;-62
2023/06/07 01:26:52;;;;;;;;;13.80;12.00;;;;;21.84;51.19;101078.84;2087713;28;45970;-62
2023/06/07 01:27:55;;;;;;;;;17.20;17.20;;;;;21.83;51.41;101077.97;2086910;28;45181;-61
2023/06/07 01:29:05;;;;;;;;;17.80;17.40;;;;;21.85;51.20;101083.28;2086757;28;46029;-60
2023/06/07 01:30:08;;;;;;;;;13.40;13.00;;;;;21.83;51.56;101083.38;2103302;27;45715;-64
2023/06/07 01:31:09;;;;;;;;;17.60;15.60;;;;;21.83;51.64;101077.13;2100006;28;45943;-65
2023/06/07 01:32:12;;;;;;;;;16.60;15.20;;;;;21.81;51.49;101077.22;2086912;28;46061;-61
2023/06/07 01:33:14;;;;;;;;;13.60;10.40;;;;;21.79;51.72;101068.34;2086138;28;45908;-62
2023/06/07 01:34:15;;;;;;;;;16.00;14.20;;;;;21.78;51.12;101073.84;2085783;28;45879;-59
2023/06/07 01:35:17;;;;;;;;;18.00;18.00;;;;;21.77;51.13;101078.38;2086502;28;46528;-61
2023/06/07 01:36:18;;;;;;;;;16.20;13.60;;;;;21.76;51.34;101070.38;2087453;28;46039;-60
2023/06/07 01:37:20;;;;;;;;;18.00;17.20;;;;;21.72;51.45;101067.88;2086922;28;46149;-62
2023/06/07 01:38:22;;;;;;;;;15.80;15.80;;;;;21.71;51.96;101068.81;2085677;28;46365;-58
2023/06/07 01:39:25;;;;;;;;;18.60;15.60;;;;;21.69;51.60;101069.88;2086003;28;46340;-62
2023/06/07 01:40:26;;;;;;;;;14.60;14.60;;;;;21.68;51.25;101069.00;2085366;28;45930;-61
2023/06/07 01:41:28;;;;;;;;;14.00;14.00;;;;;21.67;51.46;101061.00;2085497;28;47124;-60
2023/06/07 01:42:29;;;;;;;;;13.80;13.60;;;;;21.66;52.02;101070.94;2086294;28;46407;-61
2023/06/07 01:43:30;;;;;;;;;17.00;14.75;;;;;21.66;51.80;101070.94;2087105;28;46101;-62
2023/06/07 01:44:31;;;;;;;;;18.80;15.80;;;;;21.64;51.84;101072.00;2086666;28;47227;-60
2023/06/07 01:45:33;;;;;;;;;15.50;15.50;;;;;21.63;51.95;101073.84;2086813;28;45524;-58
2023/06/07 01:46:34;;;;;;;;;19.80;17.60;;;;;21.62;51.67;101068.53;2087032;28;46906;-61
2023/06/07 01:47:35;;;;;;;;;15.80;15.40;;;;;21.61;51.53;101064.97;2086182;28;46045;-62
2023/06/07 01:48:35;;;;;;;;;16.75;15.75;;;;;21.59;51.87;101066.88;2077806;28;45747;-61
2023/06/07 01:49:35;;;;;;;;;18.25;14.75;;;;;21.59;52.30;101071.41;2078246;28;45251;-60
2023/06/07 01:50:36;;;;;;;;;18.50;15.25;;;;;21.57;52.22;101066.09;2094447;28;47375;-61
2023/06/07 01:51:36;;;;;;;;;16.00;14.25;;;;;21.57;51.94;101059.84;2087258;28;46629;-61
2023/06/07 01:52:37;;;;;;;;;20.00;16.00;;;;;21.56;51.76;101060.81;2088867;28;46018;-62
2023/06/07 01:53:38;;;;;;;;;16.50;15.25;;;;;21.53;52.04;101061.88;2087666;28;46851;-60
2023/06/07 01:54:39;;;;;;;;;17.40;16.00;;;;;21.53;51.85;101061.88;2087350;28;47078;-61
2023/06/07 01:55:40;;;;;;;;;16.60;15.00;;;;;21.51;51.89;101063.81;2087891;28;46515;-59
2023/06/07 01:57:05;;;;;;;;;18.75;17.00;;;;;21.51;51.93;101068.34;2087677;28;46171;-61
2023/06/07 01:58:15;;;;;;;;;20.40;17.00;;;;;21.50;51.58;101070.16;2087979;28;45734;-59
2023/06/07 01:59:33;;;;;;;;;17.80;13.60;;;;;21.51;51.95;101062.94;2088215;28;46189;-62
2023/06/07 02:01:14;;;;;;;;;19.00;11.80;;;;;21.49;51.65;101063.03;2088056;28;46405;-61
2023/06/07 02:02:24;;;;;;;;;16.40;15.00;;;;;21.50;51.65;101055.78;2089655;28;46470;-59
2023/06/07 02:03:43;;;;;;;;;14.80;13.00;;;;;21.49;52.18;101052.22;2091295;28;47013;-62
2023/06/07 02:04:46;;;;;;;;;19.20;17.80;;;;;21.50;51.62;101058.50;2083758;28;46998;-59
2023/06/07 02:05:52;;;;;;;;;18.40;15.00;;;;;21.49;51.97;101056.75;2086448;28;45237;-60
2023/06/07 02:06:59;;;;;;;;;18.40;17.80;;;;;21.45;51.98;101050.66;2090025;28;46329;-60
2023/06/07 02:08:12;;;;;;;;;21.00;19.60;;;;;21.43;51.94;101055.28;2091940;28;45666;-60
2023/06/07 02:09:15;;;;;;;;;16.00;15.60;;;;;21.42;51.96;101050.84;2090699;28;46866;-60
2023/06/07 02:10:19;;;;;;;;;19.00;18.40;;;;;21.41;51.72;101054.53;2098288;28;45654;-61
2023/06/07 02:11:22;;;;;;;;;14.80;14.80;;;;;21.41;52.49;101051.81;2098741;28;46324;-59
2023/06/07 02:12:23;;;;;;;;;15.60;15.60;;;;;21.39;52.14;101048.34;2090426;28;46422;-59
2023/06/07 02:13:25;;;;;;;;;19.75;17.75;;;;;21.36;51.64;101045.84;2090164;28;45572;-60
2023/06/07 02:14:26;;;;;;;;;18.40;15.40;;;;;21.36;52.57;101054.81;2091352;28;46437;-61
2023/06/07 02:15:26;;;;;;;;;18.00;15.75;;;;;21.35;52.27;101050.38;2090899;28;45818;-61
2023/06/07 02:16:35;;;;;;;;;17.00;15.00;;;;;21.35;52.51;101047.69;2091199;28;45904;-60
2023/06/07 02:17:57;;;;;;;;;17.80;17.80;;;;;21.34;52.14;101056.75;2091015;28;47002;-60
2023/06/07 02:18:58;;;;;;;;;15.60;14.60;;;;;21.33;52.03;101051.41;2090554;28;46580;-59
2023/06/07 02:19:59;;;;;;;;;16.40;16.40;;;;;21.33;51.79;101052.28;2090677;28;46656;-60
2023/06/07 02:20:59;;;;;;;;;16.00;15.50;;;;;21.32;52.17;101050.53;2082652;28;45672;-61
2023/06/07 02:22:00;;;;;;;;;16.50;14.00;;;;;21.30;52.04;101051.59;2081362;28;45981;-61
2023/06/07 02:23:00;;;;;;;;;16.75;16.75;;;;;21.30;52.02;101051.59;2090025;28;46372;-60
2023/06/07 02:24:01;;;;;;;;;17.00;16.00;;;;;21.29;51.90;101053.44;2090862;28;46226;-62
2023/06/07 02:25:01;;;;;;;;;13.50;13.50;;;;;21.28;52.18;101048.13;2090757;28;45782;-60
2023/06/07 02:26:03;;;;;;;;;16.25;15.00;;;;;21.27;52.40;101047.28;2091650;28;45794;-59
2023/06/07 02:27:04;;;;;;;;;14.80;14.40;;;;;21.27;52.14;101043.69;2090068;28;46142;-60
2023/06/07 02:28:04;;;;;;;;;19.75;16.75;;;;;21.26;52.67;101041.97;2090251;28;46641;-60
2023/06/07 02:29:05;;;;;;;;;16.00;16.00;;;;;21.25;52.61;101048.31;2090504;28;45554;-60
2023/06/07 02:30:06;;;;;;;;;13.75;13.75;;;;;21.23;52.59;101045.69;2081858;28;46464;-60
2023/06/07 02:31:06;;;;;;;;;18.40;17.60;;;;;21.23;52.15;101047.53;2082653;28;45621;-60
2023/06/07 02:32:07;;;;;;;;;16.75;15.00;;;;;21.22;52.29;101045.78;2091246;28;46176;-60
2023/06/07 02:33:13;;;;;;;;;15.40;14.60;;;;;21.21;52.28;101044.03;2082316;28;45498;-59
2023/06/07 02:34:14;;;;;;;;;21.80;18.20;;;;;21.21;52.03;101049.44;2082426;28;46741;-62
2023/06/07 02:35:16;;;;;;;;;19.00;19.00;;;;;21.20;52.11;101053.97;2088967;28;45948;-60
2023/06/07 02:36:21;;;;;;;;;21.00;19.60;;;;;21.20;52.47;101047.69;2091378;28;46012;-60
2023/06/07 02:37:21;;;;;;;;;17.00;16.00;;;;;21.18;51.97;101039.69;2091554;28;46174;-61
2023/06/07 02:38:21;;;;;;;;;16.00;16.00;;;;;21.19;52.81;101043.25;2090424;28;46016;-61
2023/06/07 02:39:21;;;;;;;;;16.25;16.25;;;;;21.19;51.98;101049.53;2089195;28;46125;-60
2023/06/07 02:40:22;;;;;;;;;20.00;18.75;;;;;21.16;52.16;101045.19;2088254;28;45720;-61
2023/06/07 02:41:22;;;;;;;;;16.00;16.00;;;;;21.15;52.29;101043.44;2088303;28;46322;-59
2023/06/07 02:42:22;;;;;;;;;22.00;18.50;;;;;21.15;52.18;101047.97;2087477;28;46570;-60
2023/06/07 02:43:23;;;;;;;;;13.75;13.25;;;;;21.15;52.15;101040.75;2088570;28;46004;-60
2023/06/07 02:44:23;;;;;;;;;17.00;17.00;;;;;21.14;52.30;101047.13;2088293;28;45807;-60
2023/06/07 02:45:23;;;;;;;;;20.00;19.00;;;;;21.12;52.15;101040.06;2095473;28;45852;-60
2023/06/07 02:46:24;;;;;;;;;15.75;14.50;;;;;21.10;52.46;101042.88;2087770;28;46157;-60
2023/06/07 02:47:24;;;;;;;;;18.25;18.25;;;;;21.10;52.36;101050.09;2087385;28;45870;-60
2023/06/07 02:48:25;;;;;;;;;20.25;17.00;;;;;21.07;52.71;101042.16;2088500;28;46304;-59
2023/06/07 02:49:25;;;;;;;;;18.25;17.00;;;;;21.07;52.40;101047.56;2088578;28;46107;-61
2023/06/07 02:50:26;;;;;;;;;16.50;15.75;;;;;21.05;52.52;101044.97;2088436;28;45300;-61
2023/06/07 02:51:26;;;;;;;;;18.75;16.50;;;;;21.04;52.71;101045.06;2088532;28;46310;-61
2023/06/07 02:52:27;;;;;;;;;17.75;16.50;;;;;21.02;52.40;101047.84;2087444;28;47834;-60
2023/06/07 02:53:28;;;;;;;;;20.00;18.00;;;;;21.00;52.74;101043.50;2087982;28;46896;-60
2023/06/07 02:54:28;;;;;;;;;18.00;17.20;;;;;20.99;52.63;101041.78;2088521;28;46512;-60
2023/06/07 02:55:29;;;;;;;;;20.25;17.25;;;;;20.97;52.49;101049.09;2088282;28;45969;-60
2023/06/07 02:56:32;;;;;;;;;18.00;17.50;;;;;20.98;52.99;101043.59;2087898;28;46620;-60
2023/06/07 02:57:32;;;;;;;;;18.60;17.40;;;;;20.96;52.74;101045.53;2087431;28;46407;-61
2023/06/07 02:58:33;;;;;;;;;19.75;16.75;;;;;20.95;52.85;101038.38;2096052;28;45727;-62
2023/06/07 02:59:33;;;;;;;;;18.50;17.00;;;;;20.95;52.61;101040.19;2086895;28;45974;-60
2023/06/07 03:00:34;;;;;;;;;22.50;18.75;;;;;20.94;52.70;101049.25;2085757;28;46526;-60
2023/06/07 03:01:34;;;;;;;;;19.50;18.00;;;;;20.93;53.16;101044.81;2088738;28;45807;-61
2023/06/07 03:02:34;;;;;;;;;21.25;19.50;;;;;20.92;52.64;101045.78;2088461;28;46062;-60
2023/06/07 03:03:35;;;;;;;;;21.25;18.25;;;;;20.91;52.90;101047.63;2088422;28;45716;-61
2023/06/07 03:04:37;;;;;;;;;18.00;18.00;;;;;20.90;53.22;101051.28;2087653;28;46770;-60
2023/06/07 03:05:40;;;;;;;;;20.20;18.20;;;;;20.89;52.75;101048.69;2089298;28;46526;-61
2023/06/07 03:06:41;;;;;;;;;20.00;16.60;;;;;20.89;53.21;101049.53;2088414;28;45756;-59
2023/06/07 03:07:43;;;;;;;;;22.00;19.60;;;;;20.88;52.70;101049.63;2088692;28;46278;-60
2023/06/07 03:08:43;;;;;;;;;20.20;20.20;;;;;20.87;52.98;101051.47;2087973;28;46559;-61
2023/06/07 03:09:44;;;;;;;;;18.25;17.25;;;;;20.86;52.89;101044.34;2087581;28;46505;-60
2023/06/07 03:10:44;;;;;;;;;21.25;19.00;;;;;20.87;53.19;101051.47;2088313;28;45233;-61
2023/06/07 03:11:44;;;;;;;;;20.75;18.00;;;;;20.86;52.65;101047.91;2081974;28;46078;-62
2023/06/07 03:12:45;;;;;;;;;23.50;21.50;;;;;20.86;53.07;101044.34;2082139;28;46404;-61
2023/06/07 03:13:46;;;;;;;;;17.25;15.00;;;;;20.86;53.13;101041.63;2087668;28;46144;-61
2023/06/07 03:14:46;;;;;;;;;18.50;15.75;;;;;20.86;52.67;101047.03;2087154;28;46788;-60
2023/06/07 03:15:47;;;;;;;;;19.50;19.50;;;;;20.84;53.27;101041.72;2087577;28;45786;-62
2023/06/07 03:16:48;;;;;;;;;19.80;19.80;;;;;20.84;52.91;101044.44;2087773;28;47028;-63
2023/06/07 03:17:49;;;;;;;;;20.25;20.00;;;;;20.83;52.92;101044.50;2088261;28;45867;-63
2023/06/07 03:18:49;;;;;;;;;20.20;20.00;;;;;20.81;53.05;101044.59;2087437;28;46525;-62
2023/06/07 03:19:50;;;;;;;;;21.75;19.75;;;;;20.77;52.67;101034.94;2086519;28;45951;-62
2023/06/07 03:20:50;;;;;;;;;19.00;18.00;;;;;20.76;53.22;101043.13;2087577;28;45930;-61
2023/06/07 03:21:53;;;;;;;;;17.75;15.50;;;;;20.73;53.16;101037.94;2088069;28;47706;-61
2023/06/07 03:22:55;;;;;;;;;20.00;18.80;;;;;20.71;52.71;101045.22;2087825;28;46020;-62
2023/06/07 03:23:55;;;;;;;;;20.00;18.80;;;;;20.68;53.38;101046.28;2087405;28;47064;-60
2023/06/07 03:24:57;;;;;;;;;19.25;19.00;;;;;20.66;53.41;101047.31;2087275;28;48570;-64
2023/06/07 03:25:58;;;;;;;;;22.40;20.40;;;;;20.63;53.18;101044.81;2087549;28;46083;-62
2023/06/07 03:26:59;;;;;;;;;20.20;18.60;;;;;20.61;53.33;101049.44;2087753;28;46912;-63
2023/06/07 03:28:00;;;;;;;;;23.60;23.00;;;;;20.56;53.10;101044.28;2087309;28;46255;-62
2023/06/07 03:29:00;;;;;;;;;21.50;20.00;;;;;20.54;53.39;101051.59;2078504;28;46411;-61
2023/06/07 03:30:00;;;;;;;;;22.00;19.25;;;;;20.51;53.67;101047.25;2087086;28;45509;-62
2023/06/07 03:31:01;;;;;;;;;23.25;22.25;;;;;20.49;53.81;101048.31;2087322;28;45332;-63
2023/06/07 03:32:02;;;;;;;;;22.25;20.75;;;;;20.45;53.35;101046.72;2087451;28;46298;-61
2023/06/07 03:33:02;;;;;;;;;18.50;17.00;;;;;20.42;53.44;101044.22;2087328;28;45480;-63
2023/06/07 03:34:03;;;;;;;;;20.00;16.25;;;;;20.40;53.61;101044.28;2087403;28;46770;-64
2023/06/07 03:35:03;;;;;;;;;23.00;21.00;;;;;20.37;53.44;101041.75;2087315;28;45756;-65
2023/06/07 03:36:07;;;;;;;;;21.25;21.00;;;;;20.36;54.11;101050.81;2087037;28;46740;-63
2023/06/07 03:37:08;;;;;;;;;16.60;16.60;;;;;20.35;54.22;101048.19;2085713;28;46002;-64
2023/06/07 03:38:09;;;;;;;;;18.60;17.40;;;;;20.33;54.17;101037.50;2086732;28;46187;-63
2023/06/07 03:39:09;;;;;;;;;21.50;19.25;;;;;20.32;54.16;101040.28;2085554;28;48846;-64
2023/06/07 03:40:10;;;;;;;;;18.25;16.00;;;;;20.29;53.63;101036.78;2086188;28;46634;-62
2023/06/07 03:41:10;;;;;;;;;20.20;19.40;;;;;20.28;54.42;101040.44;2085718;28;47131;-61
2023/06/07 03:42:11;;;;;;;;;22.00;18.00;;;;;20.27;53.70;101044.09;2086342;28;45874;-64
2023/06/07 03:43:11;;;;;;;;;20.75;19.00;;;;;20.26;54.08;101042.38;2086466;28;46178;-62
2023/06/07 03:44:11;;;;;;;;;22.50;19.50;;;;;20.24;53.92;101036.19;2085955;28;46243;-62
2023/06/07 03:45:12;;;;;;;;;23.25;20.75;;;;;20.24;54.01;101032.63;2086285;28;46743;-64
2023/06/07 03:46:12;;;;;;;;;17.00;16.50;;;;;20.22;54.13;101037.25;2086040;28;45532;-63
2023/06/07 03:47:12;;;;;;;;;22.75;20.75;;;;;20.19;54.18;101035.56;2086367;28;45945;-63
2023/06/07 03:48:13;;;;;;;;;18.50;18.25;;;;;20.18;54.44;101035.66;2069866;28;45634;-60
2023/06/07 03:49:13;;;;;;;;;24.25;22.75;;;;;20.16;54.26;101037.56;2070251;28;45697;-61
2023/06/07 03:50:13;;;;;;;;;19.00;18.00;;;;;20.13;54.46;101032.38;2086028;28;46290;-63
2023/06/07 03:51:14;;;;;;;;;21.75;21.25;;;;;20.12;54.59;101041.41;2086728;28;45595;-63
2023/06/07 03:52:15;;;;;;;;;26.00;23.25;;;;;20.11;54.80;101039.69;2086258;28;46290;-62
2023/06/07 03:53:15;;;;;;;;;21.50;21.00;;;;;20.09;54.65;101039.78;2086377;28;46454;-63
2023/06/07 03:54:16;;;;;;;;;23.75;21.25;;;;;20.07;54.66;101048.88;2085688;28;45462;-63
2023/06/07 03:55:19;;;;;;;;;20.75;18.75;;;;;20.05;54.69;101037.31;2086343;28;46189;-63
2023/06/07 03:56:20;;;;;;;;;26.00;23.20;;;;;20.02;54.91;101038.34;2086271;28;45664;-61
2023/06/07 03:57:21;;;;;;;;;19.40;18.80;;;;;19.99;54.59;101041.22;2086607;28;45394;-63
2023/06/07 03:58:21;;;;;;;;;21.75;21.75;;;;;19.98;54.67;101039.50;2085727;28;45992;-65
2023/06/07 03:59:22;;;;;;;;;23.50;23.00;;;;;19.97;54.68;101040.44;2086583;28;45364;-62
2023/06/07 04:00:26;;;;;;;;;22.75;21.75;;;;;19.96;54.91;101034.19;2086098;28;45238;-63
2023/06/07 04:01:27;;;;;;;;;17.20;17.20;;;;;19.97;54.60;101040.44;2078553;28;46152;-62
2023/06/07 04:02:28;;;;;;;;;25.40;21.80;;;;;19.96;54.72;101038.72;2079191;28;45564;-62
2023/06/07 04:03:30;;;;;;;;;23.50;20.25;;;;;19.95;54.68;101037.84;2086447;28;46729;-61
2023/06/07 04:04:32;;;;;;;;;26.40;21.60;;;;;19.94;54.82;101046.84;2086763;28;46052;-62
2023/06/07 04:05:38;;;;;;;;;21.60;20.60;;;;;19.91;55.35;101047.03;2085049;28;46808;-62
2023/06/07 04:06:39;;;;;;;;;21.80;20.20;;;;;19.89;55.39;101048.94;2086123;28;46553;-63
2023/06/07 04:07:40;;;;;;;;;22.40;20.60;;;;;19.87;54.81;101036.53;2078760;28;45524;-63
2023/06/07 04:08:41;;;;;;;;;20.00;18.80;;;;;19.86;55.00;101040.16;2080615;28;45578;-62
2023/06/07 04:09:42;;;;;;;;;25.20;21.40;;;;;19.84;54.98;101048.34;2087379;28;48862;-62
2023/06/07 04:10:43;;;;;;;;;26.00;25.00;;;;;19.83;54.97;101041.22;2087147;28;45752;-61
2023/06/07 04:11:43;;;;;;;;;20.75;19.00;;;;;19.82;55.29;101049.34;2087390;28;45205;-64
2023/06/07 04:12:44;;;;;;;;;23.00;20.50;;;;;19.80;55.51;101045.88;2088303;28;45561;-63
2023/06/07 04:13:45;;;;;;;;;22.40;22.20;;;;;19.80;55.43;101048.56;2087179;28;45721;-63
2023/06/07 04:14:45;;;;;;;;;22.00;21.25;;;;;19.79;55.55;101041.44;2087932;28;45651;-60
2023/06/07 04:15:45;;;;;;;;;22.75;20.50;;;;;19.79;55.36;101045.00;2086696;28;45972;-63
2023/06/07 04:16:46;;;;;;;;;21.50;19.25;;;;;19.79;55.11;101054.91;2087203;28;46932;-63
2023/06/07 04:17:46;;;;;;;;;24.25;21.50;;;;;19.78;55.10;101045.09;2087748;28;44965;-64
2023/06/07 04:18:46;;;;;;;;;26.50;22.00;;;;;19.77;55.66;101046.91;2087152;28;47375;-64
2023/06/07 04:19:49;;;;;;;;;25.75;24.75;;;;;19.76;55.35;101047.88;2086778;28;46588;-62
2023/06/07 04:20:49;;;;;;;;;26.60;24.20;;;;;19.74;55.23;101046.22;2087219;28;46442;-61
2023/06/07 04:21:49;;;;;;;;;22.50;19.25;;;;;19.73;55.37;101053.44;2078211;28;46469;-63
2023/06/07 04:22:51;;;;;;;;;25.75;21.75;;;;;19.73;55.25;101057.97;2077929;28;46605;-61
2023/06/07 04:23:52;;;;;;;;;21.00;20.00;;;;;19.71;55.52;101052.66;2088024;28;45468;-63
2023/06/07 04:24:53;;;;;;;;;24.00;23.50;;;;;19.71;55.63;101054.47;2086981;28;45455;-63
2023/06/07 04:25:58;;;;;;;;;22.20;20.40;;;;;19.70;55.43;101050.91;2086790;28;45515;-63
2023/06/07 04:26:58;;;;;;;;;24.60;20.20;;;;;19.69;55.43;101057.22;2087441;28;45969;-61
2023/06/07 04:28:00;;;;;;;;;22.25;22.25;;;;;19.69;55.64;101052.75;2085914;28;46329;-62
2023/06/07 04:29:00;;;;;;;;;23.80;21.40;;;;;19.68;55.72;101052.81;2087004;28;45934;-62
2023/06/07 04:30:02;;;;;;;;;25.00;22.75;;;;;19.65;55.74;101051.16;2086964;28;47614;-63
2023/06/07 04:31:03;;;;;;;;;21.00;19.40;;;;;19.65;55.83;101047.59;2087001;28;46307;-62
2023/06/07 04:32:03;;;;;;;;;26.25;23.00;;;;;19.64;55.82;101057.50;2086736;28;46309;-62
2023/06/07 04:33:12;;;;;;;;;27.00;26.00;;;;;19.64;55.79;101059.31;2087022;28;45101;-60
2023/06/07 04:34:17;;;;;;;;;22.20;21.80;;;;;19.62;56.03;101055.84;2086561;28;45783;-61
2023/06/07 04:35:19;;;;;;;;;26.80;23.80;;;;;19.60;55.77;101055.06;2086653;28;46562;-61
2023/06/07 04:36:19;;;;;;;;;22.40;20.60;;;;;19.58;56.05;101057.84;2086498;28;46139;-63
2023/06/07 04:37:20;;;;;;;;;23.75;23.75;;;;;19.57;55.88;101061.47;2086898;28;46644;-61
2023/06/07 04:38:20;;;;;;;;;20.50;18.50;;;;;19.57;55.80;101055.22;2087492;28;47153;-63
2023/06/07 04:39:21;;;;;;;;;28.00;24.75;;;;;19.55;56.04;101052.59;2087665;28;46329;-61
2023/06/07 04:40:23;;;;;;;;;24.50;23.75;;;;;19.54;55.59;101050.81;2087141;28;46537;-63
2023/06/07 04:41:30;;;;;;;;;25.60;23.80;;;;;19.53;56.14;101053.59;2087403;28;46519;-63